Time,TemperatureF,DewpointF,PressureIn,WindDirection,WindDirectionDegrees,WindSpeedMPH,WindSpeedGustMPH,Humidity,HourlyPrecipIn,Conditions,Clouds,dailyrainin,SoftwareType,DateUTC
2013-01-26 19:20:00,60.8,33.7,30.22,West,266,0.0,0.0,36,0.00,CLR,,0.00,WeatherDisplay:10.37,2013-01-26 18:20:00,
2013-01-26 19:25:00,60.6,34.2,30.22,WNW,294,0.0,1.0,37,0.00,CLR,,0.00,WeatherDisplay:10.37,2013-01-26 18:25:00,
2013-01-26 19:30:00,60.4,34.0,30.22,SSW,202,0.0,1.0,37,0.00,CLR,,0.00,WeatherDisplay:10.37,2013-01-26 18:30:00,
2013-01-26 19:35:00,60.4,34.0,30.22,SSW,207,0.0,1.0,37,0.00,CLR,,0.00,WeatherDisplay:10.37,2013-01-26 18:35:00,
2013-01-26 19:40:00,59.7,34.7,30.22,SW,228,1.0,2.0,39,0.00,CLR,,0.00,WeatherDisplay:10.37,2013-01-26 18:40:00,
2013-01-26 19:45:00,59.7,34.0,30.23,WSW,247,0.0,2.0,38,0.00,CLR,,0.00,WeatherDisplay:10.37,2013-01-26 18:45:00,
2013-01-26 19:50:00,59.5,33.9,30.23,West,270,0.0,2.0,38,0.00,CLR,,0.00,WeatherDisplay:10.37,2013-01-26 18:50:00,
2013-01-26 19:55:00,59.5,33.9,30.23,West,270,0.0,2.0,38,0.00,CLR,,0.00,WeatherDisplay:10.37,2013-01-26 18:55:00,
2013-01-26 20:00:00,59.5,34.5,30.24,West,270,1.0,2.0,39,0.00,CLR,,0.00,WeatherDisplay:10.37,2013-01-26 19:00:00,
2013-01-26 20:05:00,59.2,34.9,30.24,West,270,0.0,2.0,40,0.00,CLR,,0.00,WeatherDisplay:10.37,2013-01-26 19:05:00,
2013-01-26 20:10:00,59.0,35.3,30.24,East,90,0.0,0.0,41,0.00,CLR,,0.00,WeatherDisplay:10.37,2013-01-26 19:10:00,
2013-01-26 20:15:00,58.6,35.0,30.25,West,270,0.0,1.0,41,0.00,CLR,,0.00,WeatherDisplay:10.37,2013-01-26 19:15:00,
2013-01-26 20:20:00,58.3,35.3,30.25,West,270,0.0,2.0,42,0.00,CLR,,0.00,WeatherDisplay:10.37,2013-01-26 19:20:00,
2013-01-26 20:25:00,58.1,35.1,30.25,West,273,1.0,2.0,42,0.00,CLR,,0.00,WeatherDisplay:10.37,2013-01-26 19:25:00,
2013-01-26 20:30:00,57.9,35.5,30.25,WNW,293,1.0,2.0,43,0.00,CLR,,0.00,WeatherDisplay:10.37,2013-01-26 19:30:00,
2013-01-26 20:35:00,57.7,35.4,30.25,NW,310,1.0,3.0,43,0.00,CLR,,0.00,WeatherDisplay:10.37,2013-01-26 19:35:00,
2013-01-26 20:37:00,46.9,27.2,29.90,WSW,248,8.1,8.1,46,0.00,CLR,,0.00,WeatherDisplay:10.37,2013-01-26 19:37:00,
2013-01-26 20:40:00,57.6,35.2,30.25,WNW,293,2.0,4.0,43,0.00,CLR,,0.00,WeatherDisplay:10.37,2013-01-26 19:40:00,
2013-01-26 20:42:00,46.9,26.7,29.90,West,270,8.1,8.1,45,0.00,CLR,,0.00,WeatherDisplay:10.37,2013-01-26 19:42:00,
2013-01-26 20:47:00,47.1,26.8,29.90,West,270,8.1,8.1,45,0.00,CLR,,0.00,WeatherDisplay:10.37,2013-01-26 19:47:00,
2013-01-26 20:52:00,47.1,27.4,29.90,SW,225,6.9,6.9,46,0.00,CLR,,0.00,WeatherDisplay:10.37,2013-01-26 19:52:00,
2013-01-26 20:57:00,46.9,27.2,29.90,West,270,10.4,10.4,46,0.00,CLR,,0.00,WeatherDisplay:10.37,2013-01-26 19:57:00,
2013-01-26 21:02:00,46.9,26.7,29.90,SW,225,10.4,10.4,45,0.00,CLR,,0.00,WeatherDisplay:10.37,2013-01-26 20:02:00,
2013-01-26 21:07:00,46.9,27.2,29.91,SW,225,8.1,8.1,46,0.00,CLR,,0.00,WeatherDisplay:10.37,2013-01-26 20:07:00,
2013-01-26 21:12:00,46.9,27.2,29.91,West,270,11.5,11.5,46,0.00,CLR,,0.00,WeatherDisplay:10.37,2013-01-26 20:12:00,
2013-01-26 21:47:00,46.9,27.2,29.91,South,180,9.2,9.2,46,0.00,CLR,,0.00,WeatherDisplay:10.37,2013-01-26 20:47:00,
2013-01-26 21:52:00,46.8,27.0,29.92,SW,225,10.4,10.4,46,0.00,CLR,,0.00,WeatherDisplay:10.37,2013-01-26 20:52:00,
2013-01-26 21:57:00,46.8,27.0,29.92,WSW,248,8.1,8.1,46,0.00,CLR,,0.00,WeatherDisplay:10.37,2013-01-26 20:57:00,
2013-01-26 22:02:00,46.8,27.0,29.92,WSW,248,12.7,12.7,46,0.00,CLR,,0.00,WeatherDisplay:10.37,2013-01-26 21:02:00,
2013-01-26 22:07:00,46.8,27.0,29.93,SW,225,12.7,12.7,46,0.00,CLR,,0.00,WeatherDisplay:10.37,2013-01-26 21:07:00,
2013-01-26 22:12:00,46.6,27.4,29.92,North,0,10.4,10.4,47,0.00,CLR,,0.00,WeatherDisplay:10.37,2013-01-26 21:12:00,
2013-01-26 22:17:00,46.6,27.4,29.93,SW,225,10.4,10.4,47,0.00,CLR,,0.00,WeatherDisplay:10.37,2013-01-26 21:17:00,
2013-01-26 22:22:00,46.6,27.4,29.93,SW,225,5.8,5.8,47,0.00,CLR,,0.00,WeatherDisplay:10.37,2013-01-26 21:22:00,
2013-01-26 22:27:00,46.6,26.9,29.93,SSW,202,10.4,10.4,46,0.00,CLR,,0.00,WeatherDisplay:10.37,2013-01-26 21:27:00,
2013-01-26 22:33:00,46.6,26.9,29.92,West,270,5.8,5.8,46,0.00,CLR,,0.00,WeatherDisplay:10.37,2013-01-26 21:33:00,
2013-01-26 22:38:00,46.8,27.0,29.92,SW,225,5.8,5.8,46,0.00,CLR,,0.00,WeatherDisplay:10.37,2013-01-26 21:38:00,
2013-01-26 22:43:00,46.6,26.9,29.93,WSW,248,4.6,4.6,46,0.00,CLR,,0.00,WeatherDisplay:10.37,2013-01-26 21:43:00,
2013-01-26 22:48:00,46.6,26.9,29.93,SW,225,5.8,5.8,46,0.00,CLR,,0.00,WeatherDisplay:10.37,2013-01-26 21:48:00,
2013-01-26 22:53:00,46.6,26.9,29.93,SW,225,5.8,5.8,46,0.00,CLR,,0.00,WeatherDisplay:10.37,2013-01-26 21:53:00,
2013-01-26 22:58:00,46.6,27.4,29.93,West,270,5.8,5.8,47,0.00,CLR,,0.00,WeatherDisplay:10.37,2013-01-26 21:58:00,
2013-01-26 23:03:00,46.6,26.9,29.93,West,270,6.9,6.9,46,0.00,CLR,,0.00,WeatherDisplay:10.37,2013-01-26 22:03:00,
2013-01-26 23:08:00,46.6,26.9,29.93,SW,225,8.1,8.1,46,0.00,CLR,,0.00,WeatherDisplay:10.37,2013-01-26 22:08:00,
2013-01-26 23:13:00,46.8,27.0,29.93,NW,315,8.1,8.1,46,0.00,CLR,,0.00,WeatherDisplay:10.37,2013-01-26 22:13:00,
2013-01-26 23:18:00,46.6,26.9,29.93,SW,225,4.6,4.6,46,0.00,CLR,,0.00,WeatherDisplay:10.37,2013-01-26 22:18:00,
2013-01-26 23:23:00,46.6,26.9,29.93,West,270,8.1,8.1,46,0.00,CLR,,0.00,WeatherDisplay:10.37,2013-01-26 22:23:00,
2013-01-26 23:28:00,46.6,26.9,29.93,SW,225,3.5,3.5,46,0.00,CLR,,0.00,WeatherDisplay:10.37,2013-01-26 22:28:00,
2013-01-26 23:33:00,46.6,26.9,29.93,SW,225,5.8,5.8,46,0.00,CLR,,0.00,WeatherDisplay:10.37,2013-01-26 22:33:00,
2013-01-26 23:38:00,46.6,26.9,29.93,WSW,248,8.1,8.1,46,0.00,CLR,,0.00,WeatherDisplay:10.37,2013-01-26 22:38:00,
2013-01-26 23:43:00,46.6,26.9,29.93,West,270,4.6,4.6,46,0.00,CLR,,0.00,WeatherDisplay:10.37,2013-01-26 22:43:00,
2013-01-26 23:48:00,46.6,26.9,29.93,West,270,5.8,5.8,46,0.00,CLR,,0.00,WeatherDisplay:10.37,2013-01-26 22:48:00,
2013-01-26 23:53:00,46.6,26.9,29.93,West,270,5.8,5.8,46,0.00,CLR,,0.00,WeatherDisplay:10.37,2013-01-26 22:53:00,
2013-01-26 23:58:00,46.6,26.9,29.93,South,180,3.5,3.5,46,0.00,CLR,,0.00,WeatherDisplay:10.37,2013-01-26 22:58:00,